Time;durP1;ratioP1;P1;durP2;ratioP2;P2;SDS_P1;SDS_P2;PMS_P1;PMS_P2;Temp;Humidity;BMP_temperature;BMP_pressure;BME280_temperature;BME280_humidity;BME280_pressure;Samples;Min_cycle;Max_cycle;Signal;HPM_P1;HPM_P2
2023/10/24 00:01:24;;;;;;;4.33;3.13;;;13.80;99.90;;;;;;5013350;28;20655;-70
2023/10/24 00:03:50;;;;;;;8.00;3.27;;;13.70;99.90;;;;;;5013396;28;20177;-69
2023/10/24 00:06:15;;;;;;;4.90;2.70;;;13.80;99.90;;;;;;5028373;28;20682;-70
2023/10/24 00:08:41;;;;;;;6.60;2.73;;;13.70;99.90;;;;;;5013243;28;20705;-69
2023/10/24 00:11:07;;;;;;;3.60;2.30;;;13.80;99.90;;;;;;5012952;28;20747;-70
2023/10/24 00:13:33;;;;;;;2.87;2.57;;;13.80;99.90;;;;;;5013299;28;20547;-69
2023/10/24 00:15:59;;;;;;;3.20;2.43;;;13.90;99.90;;;;;;5027820;28;20183;-70
2023/10/24 00:18:26;;;;;;;2.37;2.10;;;13.90;99.90;;;;;;5012941;28;20731;-70
2023/10/24 00:20:51;;;;;;;5.53;2.77;;;13.90;99.90;;;;;;5011789;28;20791;-70
2023/10/24 00:23:17;;;;;;;2.60;2.40;;;13.80;99.90;;;;;;5012986;28;20410;-70
2023/10/24 00:25:42;;;;;;;3.60;2.07;;;13.80;99.90;;;;;;5009375;28;20715;-70
2023/10/24 00:28:08;;;;;;;2.67;2.30;;;13.70;99.90;;;;;;4992625;28;20195;-71
2023/10/24 00:30:34;;;;;;;3.00;1.97;;;13.60;99.90;;;;;;4999767;28;20618;-71
2023/10/24 00:33:00;;;;;;;5.07;2.67;;;13.50;99.90;;;;;;5012488;28;20543;-71
2023/10/24 00:35:25;;;;;;;2.60;2.10;;;13.50;99.90;;;;;;5012691;28;20399;-70
2023/10/24 00:37:51;;;;;;;3.50;1.90;;;13.40;99.90;;;;;;5012697;28;20196;-71
2023/10/24 00:40:18;;;;;;;3.07;2.53;;;13.30;99.90;;;;;;5027649;28;20548;-70
2023/10/24 00:42:44;;;;;;;3.20;2.20;;;13.40;99.90;;;;;;5012706;28;20663;-71
2023/10/24 00:45:10;;;;;;;8.40;3.23;;;13.40;99.90;;;;;;5012614;28;20432;-71
2023/10/24 00:47:38;;;;;;;4.07;3.43;;;13.40;99.90;;;;;;5011643;28;20473;-71
2023/10/24 00:50:07;;;;;;;2.67;2.47;;;13.40;99.90;;;;;;5012365;28;20486;-71
2023/10/24 00:52:33;;;;;;;4.63;2.47;;;13.30;99.90;;;;;;5027687;28;20408;-70
2023/10/24 00:54:59;;;;;;;6.77;2.83;;;13.30;99.90;;;;;;5012546;28;20410;-71
2023/10/24 00:57:25;;;;;;;3.73;2.37;;;13.20;99.90;;;;;;5012252;28;20518;-71
2023/10/24 00:59:52;;;;;;;5.63;2.67;;;13.00;99.90;;;;;;5012655;28;20502;-71
2023/10/24 01:02:19;;;;;;;3.60;2.90;;;12.90;99.90;;;;;;5012327;28;20469;-71
2023/10/24 01:04:45;;;;;;;3.50;2.93;;;12.80;99.90;;;;;;5027476;28;20419;-71
2023/10/24 01:07:11;;;;;;;4.50;3.30;;;12.70;99.90;;;;;;5010829;28;20770;-71
2023/10/24 01:09:36;;;;;;;5.07;3.00;;;12.70;99.90;;;;;;5012291;28;20223;-70
2023/10/24 01:12:02;;;;;;;12.30;4.40;;;12.80;99.90;;;;;;5011993;28;20224;-71
2023/10/24 01:14:28;;;;;;;5.67;3.20;;;12.80;99.90;;;;;;5012410;28;20171;-70
2023/10/24 01:16:53;;;;;;;2.90;2.50;;;12.80;99.90;;;;;;5027227;28;20431;-70
2023/10/24 01:19:19;;;;;;;6.90;3.20;;;12.80;99.90;;;;;;5012313;28;20175;-71
2023/10/24 01:21:46;;;;;;;5.60;3.27;;;12.70;99.90;;;;;;5012101;28;20172;-70
2023/10/24 01:24:16;;;;;;;4.13;2.83;;;12.70;99.90;;;;;;5012119;28;20255;-71
2023/10/24 01:26:42;;;;;;;5.73;3.30;;;12.70;99.90;;;;;;5005091;28;20451;-70
2023/10/24 01:29:08;;;;;;;3.13;2.83;;;12.70;99.90;;;;;;5011900;28;20415;-71
2023/10/24 01:31:34;;;;;;;2.97;2.77;;;12.70;99.90;;;;;;5011626;28;20867;-70
2023/10/24 01:34:00;;;;;;;2.33;2.13;;;12.70;99.90;;;;;;5012210;28;20411;-71
2023/10/24 01:36:25;;;;;;;4.40;3.20;;;12.70;99.90;;;;;;5027151;28;20539;-71
2023/10/24 01:38:51;;;;;;;3.13;2.67;;;12.80;99.90;;;;;;5011999;28;20226;-70
2023/10/24 01:41:16;;;;;;;4.40;2.67;;;12.80;99.90;;;;;;5011780;28;20247;-70
2023/10/24 01:43:42;;;;;;;4.00;2.77;;;12.80;99.90;;;;;;5012218;28;20176;-71
2023/10/24 01:46:07;;;;;;;4.13;2.50;;;12.90;99.90;;;;;;5010693;28;20274;-71
2023/10/24 01:48:33;;;;;;;3.30;2.70;;;13.00;99.90;;;;;;5010501;28;20195;-70
2023/10/24 01:50:58;;;;;;;4.10;2.13;;;13.20;99.90;;;;;;5011270;28;20199;-70
2023/10/24 01:53:24;;;;;;;3.70;2.40;;;13.20;99.90;;;;;;5011834;28;20172;-71
2023/10/24 01:55:50;;;;;;;3.83;2.80;;;13.40;99.90;;;;;;5011808;28;20165;-71
2023/10/24 01:58:15;;;;;;;3.10;2.80;;;13.40;99.90;;;;;;5012486;28;20423;-71
2023/10/24 02:00:41;;;;;;;5.00;2.00;;;13.40;99.90;;;;;;5015462;28;20302;-70
2023/10/24 02:03:06;;;;;;;2.00;1.80;;;13.40;99.90;;;;;;5030745;28;20253;-71
2023/10/24 02:05:32;;;;;;;3.10;2.20;;;13.40;99.90;;;;;;5030700;28;20699;-72
2023/10/24 02:07:57;;;;;;;2.10;1.60;;;13.40;99.90;;;;;;5014085;28;20602;-72
2023/10/24 02:10:23;;;;;;;2.43;1.40;;;13.40;99.90;;;;;;5015148;28;20188;-70
2023/10/24 02:12:49;;;;;;;1.70;1.60;;;13.50;99.90;;;;;;5015391;28;20164;-71
2023/10/24 02:15:14;;;;;;;2.43;1.30;;;13.50;99.90;;;;;;5015498;28;20687;-70
2023/10/24 02:17:42;;;;;;;3.00;1.60;;;13.60;99.90;;;;;;5014021;28;20227;-71
2023/10/24 02:20:09;;;;;;;2.17;1.80;;;13.60;99.90;;;;;;5014957;28;20639;-71
2023/10/24 02:22:34;;;;;;;2.30;1.53;;;13.70;99.90;;;;;;5015191;28;20430;-70
2023/10/24 02:25:00;;;;;;;1.87;1.77;;;13.60;99.90;;;;;;5014811;28;20395;-70
2023/10/24 02:27:26;;;;;;;1.67;1.50;;;13.70;99.90;;;;;;5008591;28;20254;-70
2023/10/24 02:29:52;;;;;;;1.50;1.40;;;13.70;99.90;;;;;;5014906;28;20214;-71
2023/10/24 02:32:18;;;;;;;1.57;1.33;;;13.60;99.90;;;;;;5014697;28;20486;-70
2023/10/24 02:34:48;;;;;;;3.63;1.97;;;13.60;99.90;;;;;;5013787;28;20251;-71
2023/10/24 02:37:13;;;;;;;2.60;1.63;;;13.70;99.90;;;;;;5029998;28;20204;-71
2023/10/24 02:39:39;;;;;;;2.97;2.10;;;13.70;99.90;;;;;;5014825;28;20473;-70
2023/10/24 02:42:04;;;;;;;3.43;1.63;;;13.80;99.90;;;;;;5014707;28;20530;-70
2023/10/24 02:44:30;;;;;;;2.33;2.13;;;13.70;99.90;;;;;;5013656;28;20208;-70
2023/10/24 02:46:55;;;;;;;2.03;1.40;;;13.80;99.90;;;;;;5014722;28;20184;-70
2023/10/24 02:49:21;;;;;;;1.87;1.67;;;13.80;99.90;;;;;;5013478;28;20221;-70
2023/10/24 02:51:46;;;;;;;1.67;1.30;;;13.80;99.90;;;;;;5013191;28;20196;-71
2023/10/24 02:54:12;;;;;;;1.93;1.23;;;13.90;99.90;;;;;;5014706;28;20165;-70
2023/10/24 02:56:37;;;;;;;3.83;1.63;;;13.80;99.90;;;;;;5014604;28;20191;-71
2023/10/24 02:59:04;;;;;;;1.70;1.47;;;13.80;99.90;;;;;;5014674;28;20160;-70
2023/10/24 03:01:29;;;;;;;2.87;1.00;;;13.80;99.90;;;;;;5029529;28;20172;-71
2023/10/24 03:03:55;;;;;;;2.00;1.20;;;13.80;99.90;;;;;;5013526;28;20411;-71
2023/10/24 03:06:20;;;;;;;1.73;1.00;;;13.80;99.90;;;;;;5014457;28;20172;-71
2023/10/24 03:08:48;;;;;;;6.03;3.27;;;13.80;99.90;;;;;;5014292;28;20251;-70
2023/10/24 03:11:22;;;;;;;2.37;1.97;;;13.80;99.90;;;;;;5013395;28;20192;-70
2023/10/24 03:13:47;;;;;;;1.23;1.13;;;13.90;99.90;;;;;;5014349;28;20387;-71
2023/10/24 03:16:13;;;;;;;1.73;1.00;;;13.80;99.90;;;;;;5014175;28;20431;-71
2023/10/24 03:18:38;;;;;;;1.30;0.90;;;13.80;99.90;;;;;;5014113;28;20627;-70
2023/10/24 03:21:07;;;;;;;1.77;1.30;;;13.90;99.90;;;;;;5013922;28;20175;-70
2023/10/24 03:23:32;;;;;;;1.73;0.90;;;14.00;99.90;;;;;;5013990;28;20665;-71
2023/10/24 03:25:59;;;;;;;1.10;0.93;;;14.00;99.90;;;;;;5010831;28;20419;-71
2023/10/24 03:28:24;;;;;;;1.50;0.77;;;13.90;99.90;;;;;;5009511;28;20192;-71
2023/10/24 03:31:00;;;;;;;1.47;1.17;;;13.80;99.90;;;;;;5004175;28;20886;-70
2023/10/24 03:33:26;;;;;;;0.80;0.73;;;13.80;99.90;;;;;;5029032;28;20168;-69
2023/10/24 03:35:51;;;;;;;0.90;0.70;;;13.70;99.90;;;;;;5013647;28;20427;-69
2023/10/24 03:38:17;;;;;;;1.00;0.70;;;13.80;99.90;;;;;;5012091;28;20192;-69
2023/10/24 03:40:42;;;;;;;1.63;0.97;;;13.80;99.90;;;;;;5013602;28;20172;-68
2023/10/24 03:43:08;;;;;;;1.07;0.87;;;13.90;99.90;;;;;;5028981;28;20545;-70
2023/10/24 03:45:36;;;;;;;4.30;1.07;;;13.80;99.90;;;;;;5013685;28;20164;-69
2023/10/24 03:48:02;;;;;;;1.30;0.90;;;13.80;99.90;;;;;;5013542;28;20191;-69
2023/10/24 03:50:27;;;;;;;0.90;0.70;;;13.80;99.90;;;;;;5013261;28;20443;-71
2023/10/24 03:52:53;;;;;;;2.13;0.93;;;13.80;99.90;;;;;;5012159;28;20242;-70
2023/10/24 03:55:18;;;;;;;0.90;0.80;;;13.80;99.90;;;;;;5012328;28;20164;-69
2023/10/24 03:57:44;;;;;;;1.40;0.80;;;13.90;99.90;;;;;;5012106;28;20188;-69
2023/10/24 04:00:09;;;;;;;0.87;0.70;;;13.80;99.90;;;;;;5028506;28;20169;-69
2023/10/24 04:02:35;;;;;;;2.43;0.90;;;13.80;99.90;;;;;;5004247;28;20545;-69
2023/10/24 04:05:02;;;;;;;1.10;0.80;;;13.80;99.90;;;;;;4997458;28;20991;-69
2023/10/24 04:07:28;;;;;;;1.10;0.83;;;13.80;99.90;;;;;;5012937;28;20423;-69
2023/10/24 04:09:53;;;;;;;5.30;3.27;;;13.80;99.90;;;;;;5028539;28;20411;-70
2023/10/24 04:12:19;;;;;;;2.33;1.20;;;13.80;99.90;;;;;;5028184;28;20196;-69
2023/10/24 04:14:45;;;;;;;0.80;0.73;;;13.80;99.90;;;;;;5013360;28;20168;-69
2023/10/24 04:17:11;;;;;;;2.80;1.00;;;13.70;99.90;;;;;;5011767;28;20180;-69
2023/10/24 04:19:36;;;;;;;1.00;0.80;;;13.70;99.90;;;;;;5012726;28;20465;-69
2023/10/24 04:22:02;;;;;;;4.43;0.80;;;13.70;99.90;;;;;;5027751;28;20241;-70
2023/10/24 04:24:28;;;;;;;3.53;0.80;;;13.70;99.90;;;;;;5012946;28;20227;-69
2023/10/24 04:26:54;;;;;;;1.20;0.90;;;13.70;99.90;;;;;;5008264;28;20484;-69
2023/10/24 04:29:19;;;;;;;1.10;0.70;;;13.70;99.90;;;;;;5012817;28;20183;-69
2023/10/24 04:31:45;;;;;;;1.10;0.90;;;13.50;99.90;;;;;;4999311;28;20443;-69
2023/10/24 04:34:10;;;;;;;1.10;0.93;;;13.60;99.90;;;;;;5011693;28;20160;-70
2023/10/24 04:36:36;;;;;;;1.03;0.90;;;13.50;99.90;;;;;;4998287;28;20204;-70
2023/10/24 04:39:02;;;;;;;1.00;0.90;;;13.60;99.90;;;;;;5012649;28;20234;-69
2023/10/24 04:41:27;;;;;;;0.80;0.67;;;13.60;99.90;;;;;;5012558;28;20176;-69
2023/10/24 04:43:53;;;;;;;1.20;0.73;;;13.50;99.90;;;;;;5011348;28;20184;-69
2023/10/24 04:46:18;;;;;;;1.17;0.97;;;13.60;99.90;;;;;;5012440;28;20176;-70
2023/10/24 04:48:44;;;;;;;0.93;0.83;;;13.50;99.90;;;;;;5012435;28;20203;-68
2023/10/24 04:51:10;;;;;;;1.10;0.87;;;13.40;99.90;;;;;;5027459;28;20200;-69
2023/10/24 04:53:36;;;;;;;1.20;1.00;;;13.50;99.90;;;;;;5011340;28;20254;-69
2023/10/24 04:56:03;;;;;;;0.90;0.70;;;13.50;99.90;;;;;;5027713;28;20499;-69
2023/10/24 04:58:29;;;;;;;2.30;2.07;;;13.50;99.90;;;;;;5011130;28;20188;-69
2023/10/24 05:00:54;;;;;;;2.23;1.60;;;13.60;99.90;;;;;;5012176;28;20408;-70
2023/10/24 05:03:20;;;;;;;4.23;2.23;;;13.60;99.90;;;;;;5027550;28;20985;-69
2023/10/24 05:05:45;;;;;;;4.30;1.37;;;13.60;99.90;;;;;;5012353;28;20175;-69
2023/10/24 05:08:12;;;;;;;1.47;0.70;;;13.60;99.90;;;;;;5027366;28;20601;-69
2023/10/24 05:10:38;;;;;;;2.20;0.90;;;13.60;99.90;;;;;;5011886;28;20204;-69
2023/10/24 05:13:04;;;;;;;0.80;0.70;;;13.60;99.90;;;;;;4999401;28;20995;-69
2023/10/24 05:15:29;;;;;;;1.57;1.47;;;13.60;99.90;;;;;;5012150;28;20414;-69
2023/10/24 05:17:55;;;;;;;0.80;0.70;;;13.60;99.90;;;;;;5024387;28;20215;-69
2023/10/24 05:20:21;;;;;;;1.40;0.77;;;13.70;99.90;;;;;;5012285;28;20647;-69
2023/10/24 05:22:46;;;;;;;1.27;1.17;;;13.80;99.90;;;;;;5027292;28;20175;-69
2023/10/24 05:25:12;;;;;;;1.23;0.93;;;13.80;99.90;;;;;;5011022;28;20164;-69
2023/10/24 05:27:38;;;;;;;0.97;0.70;;;13.80;99.90;;;;;;5002150;28;20279;-69
2023/10/24 05:30:04;;;;;;;1.20;0.90;;;13.90;99.90;;;;;;4996375;28;20173;-69
2023/10/24 05:32:30;;;;;;;1.00;0.80;;;13.80;99.90;;;;;;5011783;28;20494;-68
2023/10/24 05:34:55;;;;;;;1.00;0.90;;;13.90;99.90;;;;;;5022902;28;20540;-69
2023/10/24 05:37:21;;;;;;;1.00;0.90;;;13.90;99.90;;;;;;5006561;28;20235;-69
2023/10/24 05:39:46;;;;;;;1.03;0.93;;;13.80;99.90;;;;;;5006453;28;20200;-69
2023/10/24 05:42:12;;;;;;;1.27;0.90;;;13.80;99.90;;;;;;5013763;28;20250;-69
2023/10/24 05:44:38;;;;;;;1.40;0.70;;;13.70;99.90;;;;;;5015899;28;20183;-69
2023/10/24 05:47:03;;;;;;;1.67;0.83;;;13.70;99.90;;;;;;5015727;28;20230;-69
2023/10/24 05:49:29;;;;;;;1.20;0.87;;;13.70;99.90;;;;;;5013896;28;20180;-70
2023/10/24 05:51:55;;;;;;;0.87;0.60;;;13.60;99.90;;;;;;4994093;28;20668;-69
2023/10/24 05:54:20;;;;;;;2.50;0.80;;;13.60;99.90;;;;;;5006205;28;20172;-69
2023/10/24 05:56:46;;;;;;;0.80;0.63;;;13.60;99.90;;;;;;5014370;28;20204;-70
2023/10/24 05:59:11;;;;;;;1.23;0.80;;;13.60;99.90;;;;;;5015721;28;20172;-68
2023/10/24 06:01:37;;;;;;;1.00;0.80;;;13.60;99.90;;;;;;5014177;28;20187;-69
2023/10/24 06:04:02;;;;;;;1.93;1.13;;;13.60;99.90;;;;;;5030812;28;20237;-69
2023/10/24 06:06:28;;;;;;;1.80;0.90;;;13.60;99.90;;;;;;5030878;28;20542;-69
2023/10/24 06:08:53;;;;;;;1.87;1.20;;;13.60;99.90;;;;;;5015600;28;20179;-69
2023/10/24 06:11:19;;;;;;;1.30;1.20;;;13.60;99.90;;;;;;5015283;28;20215;-69
2023/10/24 06:13:44;;;;;;;1.00;0.90;;;13.60;99.90;;;;;;5015273;28;20538;-69
2023/10/24 06:16:12;;;;;;;1.93;0.87;;;13.60;99.90;;;;;;5014046;28;20183;-69
2023/10/24 06:18:38;;;;;;;1.10;0.87;;;13.60;99.90;;;;;;5015199;28;20167;-69
2023/10/24 06:21:08;;;;;;;1.00;0.90;;;13.60;99.90;;;;;;5015179;28;20498;-69
2023/10/24 06:23:35;;;;;;;1.27;0.87;;;13.60;99.90;;;;;;5015295;28;20650;-69
2023/10/24 06:26:00;;;;;;;1.30;1.20;;;13.50;99.90;;;;;;5014848;28;20411;-69
2023/10/24 06:28:26;;;;;;;3.43;1.20;;;13.50;99.90;;;;;;5002519;28;20445;-70
2023/10/24 06:31:04;;;;;;;2.40;1.20;;;13.60;99.90;;;;;;5005336;28;20206;-69
2023/10/24 06:33:30;;;;;;;1.40;0.93;;;13.60;99.90;;;;;;5012016;28;20169;-69
2023/10/24 06:36:02;;;;;;;1.03;0.87;;;13.60;99.90;;;;;;5007456;28;20423;-69
2023/10/24 06:38:27;;;;;;;1.20;1.10;;;13.60;99.90;;;;;;5014858;28;20223;-69
2023/10/24 06:40:55;;;;;;;1.10;1.00;;;13.60;99.90;;;;;;5014632;28;20399;-69
2023/10/24 06:43:21;;;;;;;2.13;0.90;;;13.60;99.90;;;;;;5013546;28;20591;-70
2023/10/24 06:45:47;;;;;;;1.50;1.40;;;13.60;99.90;;;;;;5012201;28;20411;-69
2023/10/24 06:48:14;;;;;;;2.10;1.40;;;13.70;99.90;;;;;;5014805;28;20427;-70
2023/10/24 06:50:39;;;;;;;2.60;1.20;;;13.70;99.90;;;;;;5014590;28;20559;-69
2023/10/24 06:53:09;;;;;;;2.73;1.10;;;13.70;99.90;;;;;;5014657;28;20400;-70
2023/10/24 06:55:35;;;;;;;0.93;0.80;;;13.70;99.90;;;;;;5011849;28;20179;-69
2023/10/24 06:58:01;;;;;;;1.73;1.07;;;13.70;99.90;;;;;;5015957;28;20427;-70
2023/10/24 07:00:28;;;;;;;1.10;1.00;;;13.80;99.90;;;;;;5014448;28;20473;-69
2023/10/24 07:02:53;;;;;;;2.70;2.17;;;13.80;99.90;;;;;;5014501;28;20160;-70
2023/10/24 07:05:19;;;;;;;4.33;2.67;;;13.80;99.90;;;;;;5013189;28;20949;-70
2023/10/24 07:07:44;;;;;;;1.50;1.40;;;13.80;99.90;;;;;;5014313;28;20266;-70
2023/10/24 07:10:10;;;;;;;1.33;0.90;;;13.90;99.90;;;;;;5014023;28;20164;-70
2023/10/24 07:12:36;;;;;;;1.13;0.90;;;13.90;99.90;;;;;;5009988;28;20595;-70
2023/10/24 07:15:03;;;;;;;1.20;1.10;;;14.00;99.90;;;;;;4991114;28;20184;-70
2023/10/24 07:17:29;;;;;;;1.20;1.07;;;13.80;99.90;;;;;;4993511;28;20195;-69
2023/10/24 07:19:56;;;;;;;1.40;1.10;;;13.80;99.90;;;;;;5004531;28;20960;-70
2023/10/24 07:22:21;;;;;;;1.00;0.80;;;13.90;99.90;;;;;;4994447;28;20407;-70
2023/10/24 07:24:47;;;;;;;2.03;1.23;;;13.90;99.90;;;;;;5002666;28;20473;-69
2023/10/24 07:27:12;;;;;;;1.30;1.03;;;13.80;99.90;;;;;;5013779;28;20212;-70
2023/10/24 07:29:39;;;;;;;1.50;1.00;;;13.70;99.90;;;;;;5010258;28;20181;-70
2023/10/24 07:32:05;;;;;;;2.30;2.10;;;13.80;99.90;;;;;;5011338;28;20220;-69
2023/10/24 07:34:34;;;;;;;1.17;1.03;;;13.80;99.90;;;;;;5012672;28;20446;-69
2023/10/24 07:37:00;;;;;;;1.30;1.10;;;13.90;99.90;;;;;;5013560;28;20282;-70
2023/10/24 07:39:26;;;;;;;1.40;1.10;;;14.00;99.90;;;;;;5005019;28;20470;-70
2023/10/24 07:41:52;;;;;;;1.10;0.83;;;13.90;99.90;;;;;;5013538;28;20403;-70
2023/10/24 07:44:18;;;;;;;1.20;1.10;;;14.00;99.90;;;;;;5013700;28;20639;-70
2023/10/24 07:46:43;;;;;;;1.70;1.07;;;14.00;99.90;;;;;;5000765;28;20189;-70
2023/10/24 07:49:09;;;;;;;2.63;1.10;;;14.00;99.90;;;;;;5025391;28;20407;-69
2023/10/24 07:51:35;;;;;;;2.33;1.40;;;14.20;99.90;;;;;;5013389;28;20188;-69
2023/10/24 07:54:01;;;;;;;1.57;1.30;;;14.30;99.90;;;;;;5028750;28;20411;-69
2023/10/24 07:56:26;;;;;;;3.20;1.50;;;14.50;99.90;;;;;;5028224;28;20175;-69
2023/10/24 07:58:52;;;;;;;1.23;1.13;;;14.60;99.90;;;;;;5013421;28;20164;-70
2023/10/24 08:01:18;;;;;;;1.00;0.90;;;14.70;99.90;;;;;;5013224;28;20196;-70
2023/10/24 08:03:44;;;;;;;1.87;1.13;;;14.80;99.90;;;;;;5013431;28;20538;-69
2023/10/24 08:06:10;;;;;;;1.40;1.00;;;14.90;99.90;;;;;;5010557;28;21003;-70
2023/10/24 08:08:35;;;;;;;1.20;0.90;;;14.90;99.90;;;;;;5006691;28;20450;-69
2023/10/24 08:11:01;;;;;;;1.60;1.30;;;15.00;99.90;;;;;;5019800;28;20222;-69
2023/10/24 08:13:27;;;;;;;1.43;1.10;;;15.00;99.90;;;;;;5004543;28;20200;-69
2023/10/24 08:15:53;;;;;;;1.47;0.90;;;15.10;99.90;;;;;;5020697;28;20934;-69
2023/10/24 08:18:19;;;;;;;1.20;1.00;;;15.10;99.90;;;;;;5013033;28;20188;-69
2023/10/24 08:20:44;;;;;;;1.00;0.90;;;15.30;99.90;;;;;;5011624;28;20419;-70
2023/10/24 08:23:10;;;;;;;2.50;1.13;;;15.40;99.90;;;;;;5011758;28;20470;-70
2023/10/24 08:25:36;;;;;;;1.20;1.07;;;15.50;99.90;;;;;;5020245;28;20180;-71
2023/10/24 08:28:02;;;;;;;1.40;1.00;;;15.60;99.90;;;;;;4990168;28;21021;-70
2023/10/24 08:30:31;;;;;;;1.20;1.10;;;15.70;99.90;;;;;;5012129;28;20180;-70
2023/10/24 08:32:57;;;;;;;1.20;1.10;;;15.80;99.90;;;;;;5012735;28;20411;-70
2023/10/24 08:35:23;;;;;;;1.10;1.00;;;15.90;99.90;;;;;;5003252;28;20461;-70
2023/10/24 08:37:48;;;;;;;1.00;0.90;;;16.00;99.90;;;;;;5002299;28;20211;-71
2023/10/24 08:40:14;;;;;;;2.27;1.13;;;16.00;99.90;;;;;;4997546;28;20173;-69
2023/10/24 08:42:41;;;;;;;9.50;2.20;;;16.10;99.90;;;;;;5012564;28;20169;-69
2023/10/24 08:45:08;;;;;;;1.20;1.00;;;16.10;99.90;;;;;;5012581;28;20326;-70
2023/10/24 08:47:35;;;;;;;1.20;1.00;;;16.30;99.90;;;;;;5003218;28;20806;-70
2023/10/24 08:50:02;;;;;;;1.00;0.73;;;16.20;99.90;;;;;;5011113;28;20906;-70
2023/10/24 08:52:29;;;;;;;2.27;0.90;;;16.30;99.90;;;;;;5010953;28;20465;-70
2023/10/24 08:54:57;;;;;;;1.83;0.87;;;16.40;99.90;;;;;;5011263;28;20415;-70
2023/10/24 08:57:27;;;;;;;1.97;1.10;;;16.70;99.90;;;;;;5012355;28;20430;-70
2023/10/24 08:59:56;;;;;;;2.30;1.57;;;16.60;99.90;;;;;;4992751;28;20527;-70
2023/10/24 09:02:22;;;;;;;1.63;1.00;;;16.60;99.90;;;;;;4975132;28;20413;-70
2023/10/24 09:04:50;;;;;;;1.07;0.97;;;16.60;99.90;;;;;;5011716;28;20478;-70
2023/10/24 09:07:15;;;;;;;1.20;0.97;;;16.70;99.90;;;;;;5012036;28;20658;-69
2023/10/24 09:09:41;;;;;;;1.47;1.13;;;16.70;99.90;;;;;;5010462;28;20465;-69
2023/10/24 09:12:08;;;;;;;1.10;0.80;;;16.60;99.90;;;;;;5010882;28;20587;-69
2023/10/24 09:14:34;;;;;;;1.00;0.90;;;16.50;99.90;;;;;;5012290;28;20191;-69
2023/10/24 09:17:04;;;;;;;1.50;1.03;;;16.50;99.90;;;;;;5012143;28;20463;-70
2023/10/24 09:19:30;;;;;;;1.50;1.10;;;16.50;99.90;;;;;;4994446;28;20207;-70
2023/10/24 09:21:56;;;;;;;2.93;1.00;;;16.40;99.90;;;;;;5012148;28;20804;-70
2023/10/24 09:24:22;;;;;;;1.20;0.90;;;16.40;99.90;;;;;;5012186;28;20195;-70
2023/10/24 09:26:52;;;;;;;1.20;0.87;;;16.40;99.90;;;;;;5009970;28;20458;-70
2023/10/24 09:29:20;;;;;;;1.10;1.00;;;16.30;99.90;;;;;;4996229;28;20949;-71
2023/10/24 09:31:46;;;;;;;1.67;1.07;;;16.30;99.90;;;;;;4997978;28;20447;-70
2023/10/24 09:34:12;;;;;;;1.10;0.90;;;16.30;99.90;;;;;;5011934;28;20462;-69
2023/10/24 09:36:38;;;;;;;1.07;0.80;;;16.30;99.90;;;;;;5011775;28;20486;-70
2023/10/24 09:39:03;;;;;;;1.77;0.97;;;16.30;99.90;;;;;;5011788;28;20498;-69
2023/10/24 09:41:30;;;;;;;2.07;0.83;;;16.20;99.90;;;;;;5011675;28;20199;-69
2023/10/24 09:44:00;;;;;;;1.23;1.10;;;16.20;99.90;;;;;;5010507;28;20531;-69
2023/10/24 09:46:28;;;;;;;3.30;1.10;;;16.10;99.90;;;;;;5012058;28;20427;-70
2023/10/24 09:49:10;;;;;;;1.30;1.10;;;16.00;99.90;;;;;;5000344;28;20443;-70
2023/10/24 09:51:36;;;;;;;1.00;0.80;;;16.20;99.90;;;;;;5026846;28;20467;-69
2023/10/24 09:54:03;;;;;;;2.17;1.03;;;16.30;99.90;;;;;;5011672;28;20442;-69
2023/10/24 09:56:29;;;;;;;1.13;0.97;;;16.70;99.90;;;;;;5011860;28;20172;-70
2023/10/24 09:58:55;;;;;;;1.30;0.90;;;17.20;99.90;;;;;;5011696;28;20477;-70
2023/10/24 10:01:22;;;;;;;0.90;0.80;;;17.60;99.90;;;;;;5011507;28;20187;-70
2023/10/24 10:03:53;;;;;;;2.37;1.00;;;17.80;99.90;;;;;;5011724;28;20173;-70
2023/10/24 10:06:19;;;;;;;1.43;1.00;;;18.20;99.90;;;;;;5011925;28;20412;-70
2023/10/24 10:08:46;;;;;;;1.00;0.80;;;18.00;99.90;;;;;;5011707;28;20461;-70
2023/10/24 10:11:13;;;;;;;1.30;1.10;;;18.20;99.90;;;;;;5011578;28;20458;-69
2023/10/24 10:13:54;;;;;;;1.37;0.90;;;18.40;99.90;;;;;;5011662;28;20913;-69
2023/10/24 10:16:44;;;;;;;1.30;0.90;;;18.50;99.90;;;;;;5010451;28;20422;-69
2023/10/24 10:19:43;;;;;;;3.13;1.17;;;18.60;99.90;;;;;;5012441;28;20407;-69
2023/10/24 10:22:34;;;;;;;1.50;1.20;;;18.60;99.90;;;;;;5015031;28;20446;-70
2023/10/24 10:25:18;;;;;;;2.60;1.27;;;18.70;99.90;;;;;;5015258;28;20454;-69
2023/10/24 10:28:21;;;;;;;9.50;1.80;;;18.80;99.90;;;;;;5014977;28;20791;-69
2023/10/24 10:31:17;;;;;;;1.90;1.00;;;18.70;99.90;;;;;;5014967;28;20446;-69
2023/10/24 10:33:43;;;;;;;3.43;0.90;;;18.50;99.90;;;;;;4997477;28;20411;-69
2023/10/24 10:36:11;;;;;;;2.20;1.20;;;18.20;99.90;;;;;;5014943;28;20431;-70
2023/10/24 10:38:59;;;;;;;3.47;1.77;;;18.10;99.90;;;;;;5014974;28;20399;-70
2023/10/24 10:41:26;;;;;;;1.20;1.10;;;17.80;99.90;;;;;;5013607;28;20409;-70
2023/10/24 10:43:59;;;;;;;1.60;1.30;;;17.50;99.90;;;;;;5014956;28;20962;-69
2023/10/24 10:46:26;;;;;;;1.20;0.83;;;17.40;99.90;;;;;;5014864;28;20771;-70
2023/10/24 10:48:56;;;;;;;1.83;1.23;;;17.40;99.90;;;;;;5014789;28;20403;-70
2023/10/24 10:51:28;;;;;;;5.07;1.27;;;17.10;99.90;;;;;;5014189;28;20454;-70
2023/10/24 10:54:24;;;;;;;2.60;1.30;;;16.80;99.90;;;;;;5014688;28;20450;-70
2023/10/24 10:56:50;;;;;;;1.57;1.37;;;16.80;99.90;;;;;;5014614;28;20435;-70
2023/10/24 10:59:24;;;;;;;4.00;1.57;;;16.70;99.90;;;;;;5014658;28;20945;-70
2023/10/24 11:01:59;;;;;;;1.47;1.37;;;16.60;99.90;;;;;;5029195;28;20206;-70
2023/10/24 11:04:24;;;;;;;2.60;1.57;;;16.50;99.90;;;;;;5014615;28;20906;-70
2023/10/24 11:06:54;;;;;;;2.10;1.47;;;16.50;99.90;;;;;;5014426;28;20477;-70
2023/10/24 11:09:21;;;;;;;2.13;1.30;;;16.30;99.90;;;;;;5013178;28;20268;-70
2023/10/24 11:12:21;;;;;;;6.23;2.23;;;16.20;99.90;;;;;;5010743;28;20455;-70
2023/10/24 11:15:13;;;;;;;3.63;1.53;;;16.20;99.90;;;;;;5008163;28;20457;-70
2023/10/24 11:17:39;;;;;;;2.50;1.57;;;16.10;99.90;;;;;;5014295;28;20427;-70
2023/10/24 11:20:05;;;;;;;1.43;1.20;;;16.00;99.90;;;;;;4996576;28;20426;-70
2023/10/24 11:22:31;;;;;;;1.87;1.40;;;15.80;99.90;;;;;;5013860;28;20773;-70
2023/10/24 11:24:58;;;;;;;1.57;1.23;;;15.60;99.90;;;;;;4996469;28;20412;-70
2023/10/24 11:27:24;;;;;;;1.27;1.17;;;15.60;99.90;;;;;;5013100;28;20442;-70
2023/10/24 11:29:53;;;;;;;3.57;1.50;;;15.60;99.90;;;;;;5017831;28;20421;-69
2023/10/24 11:32:19;;;;;;;1.70;1.23;;;15.50;99.90;;;;;;5003369;28;20200;-69
2023/10/24 11:34:46;;;;;;;2.07;1.50;;;15.50;99.90;;;;;;5014021;28;20418;-70
2023/10/24 11:37:12;;;;;;;6.10;2.50;;;15.50;99.90;;;;;;5012684;28;20479;-70
2023/10/24 11:39:41;;;;;;;2.57;2.37;;;15.40;99.90;;;;;;5013849;28;20431;-69
2023/10/24 11:42:06;;;;;;;4.23;2.53;;;15.30;99.90;;;;;;5004383;28;20176;-71
2023/10/24 11:44:32;;;;;;;2.20;2.00;;;15.30;99.90;;;;;;5014116;28;20514;-71
2023/10/24 11:46:57;;;;;;;5.23;2.33;;;15.30;99.90;;;;;;5013754;28;20195;-69
2023/10/24 11:49:33;;;;;;;4.37;1.80;;;15.20;99.90;;;;;;5013761;28;20176;-70
2023/10/24 11:51:59;;;;;;;2.60;1.70;;;15.10;99.90;;;;;;5013268;28;20254;-70
2023/10/24 11:54:26;;;;;;;2.70;1.70;;;14.90;99.90;;;;;;5013687;28;20415;-70
2023/10/24 11:56:53;;;;;;;2.43;1.90;;;14.80;99.90;;;;;;5013103;28;20809;-70
2023/10/24 11:59:18;;;;;;;5.33;1.90;;;14.80;99.90;;;;;;5013129;28;20406;-69
2023/10/24 12:01:45;;;;;;;2.60;1.77;;;14.80;99.90;;;;;;5013274;28;20837;-70
2023/10/24 12:04:15;;;;;;;1.70;1.30;;;14.70;99.90;;;;;;5013325;28;20603;-70
2023/10/24 12:06:41;;;;;;;2.80;1.30;;;14.70;99.90;;;;;;5013283;28;20435;-70
2023/10/24 12:09:07;;;;;;;1.40;1.30;;;14.70;99.90;;;;;;5003971;28;20477;-70
2023/10/24 12:11:33;;;;;;;1.70;1.07;;;14.50;99.90;;;;;;5011945;28;20202;-70
2023/10/24 12:13:59;;;;;;;3.20;1.00;;;14.40;99.90;;;;;;5012262;28;20422;-70
2023/10/24 12:16:31;;;;;;;2.03;1.37;;;14.10;99.90;;;;;;5013269;28;20765;-70
2023/10/24 12:18:57;;;;;;;1.63;1.40;;;14.00;99.90;;;;;;5012074;28;20416;-69
2023/10/24 12:21:23;;;;;;;1.90;1.10;;;13.90;99.90;;;;;;5013261;28;20410;-69
2023/10/24 12:23:49;;;;;;;2.33;1.13;;;13.80;99.90;;;;;;5013444;28;20764;-70
2023/10/24 12:26:14;;;;;;;5.70;1.13;;;13.50;99.90;;;;;;5013295;28;20543;-69
2023/10/24 12:28:43;;;;;;;1.30;1.00;;;13.40;99.90;;;;;;5011397;28;20184;-70
2023/10/24 12:31:09;;;;;;;1.60;1.17;;;13.40;99.90;;;;;;4999805;28;20722;-69
2023/10/24 12:33:35;;;;;;;1.57;1.00;;;13.50;99.90;;;;;;5012615;28;20429;-69
2023/10/24 12:36:01;;;;;;;1.23;0.90;;;13.60;99.90;;;;;;5027969;28;20517;-70
2023/10/24 12:38:27;;;;;;;2.80;0.93;;;13.70;99.90;;;;;;5012688;28;20267;-69
2023/10/24 12:40:53;;;;;;;1.40;1.20;;;13.90;99.90;;;;;;5009734;28;20423;-69
2023/10/24 12:43:18;;;;;;;1.47;0.93;;;13.90;99.90;;;;;;5012598;28;20417;-69
2023/10/24 12:45:44;;;;;;;1.00;0.90;;;13.90;99.90;;;;;;5012756;28;20256;-69
2023/10/24 12:48:13;;;;;;;2.43;1.00;;;13.90;99.90;;;;;;5012566;28;20742;-69